• Join FlightAware (Why Join?)
  • Login
  • US Flag 
08:55AM EDT


 

Airport Tracker/Info


-or-


 

Live Flight TrackerFlight Track Log ✈ AWE3287 ✈ 26-Nov-2013 ✈ KPHL - KORF

Flight Track Log - Related Links

Times and Time Zones

All times are in EST time to prevent confusion due to time zone crossing. See the AWE3287 flight status page for this flight to view local times or setup timezone preferences in your user account.

Time Position Orientation Groundspeed Altitude Reporting Facility
EST Latitude Longitude Course Direction KTS MPH feet Rate Location/Type
02:26PM 39.8833 -75.2167 186° South 135 155 700  Level Philadelphia TRACON
02:27PM 39.8500 -75.1500 123° Southeast 209 241 2,400 1,800 Climbing Philadelphia TRACON
02:28PM 39.8333 -75.0833 108° East 251 289 4,600 2,400 Climbing Philadelphia TRACON
02:29PM 39.7667 -75.1167 201° Southwest 230 265 7,700 2,160 Climbing Philadelphia TRACON
02:31PM 39.3796 -75.4055 186° South  Level Estimated
02:31PM 39.6608 -75.2006 211° Southwest 262 302 11,300  Level Washington Center
02:32PM 39.5942 -75.2550 212° Southwest 273 314 12,000 420 Climbing Washington Center
02:33PM 39.5278 -75.3092 212° Southwest 285 328 12,200 1,320 Climbing Washington Center
02:34PM 39.4486 -75.3389 196° South 285 328 14,700 2,160 Climbing Washington Center
02:35PM 39.3633 -75.3553 188° South 296 341 16,600 1,080 Climbing Washington Center
02:36PM 39.2819 -75.3689 187° South 308 354 16,900 120 Climbing Washington Center
02:37PM 39.1986 -75.3853 189° South 308 354 16,900 780 Level Washington Center
02:38PM 39.1111 -75.3964 186° South 314 361 18,500 1,500 Climbing Washington Center
02:39PM 39.0256 -75.4125 188° South 314 361 19,900 720 Climbing Washington Center
02:40PM 38.9361 -75.4236 186° South 314 361 20,000  Climbing Washington Center
02:41PM 38.8486 -75.4369 187° South 314 361 20,000  Level Washington Center
02:42PM 38.7611 -75.4478 186° South 319 367 20,000  Level Washington Center
02:43PM 38.6733 -75.4642 188° South 319 367 20,000  Level Washington Center
02:44PM 38.5839 -75.4775 187° South 324 373 20,000  Level Washington Center
02:45PM 38.4964 -75.4908 187° South 324 373 20,000  Level Washington Center
02:46PM 38.4067 -75.5017 185° South 329 379 20,000  Level Washington Center
02:47PM 38.3233 -75.5256 193° South 329 379 20,000  Level Washington Center
02:48PM 38.2439 -75.5733 205° Southwest 324 373 20,000  Level Washington Center
02:49PM 38.1647 -75.6208 205° Southwest 319 367 20,000  Level Washington Center
02:50PM 38.0875 -75.6656 205° Southwest 314 361 20,000 -60 Level Washington Center
02:51PM 38.0042 -75.7261 210° Southwest 314 361 19,900 -1,020 Descending Washington Center
02:52PM 37.9269 -75.7681 203° Southwest 314 361 18,100 -1,860 Descending Washington Center
02:53PM 37.8517 -75.8181 208° Southwest 308 354 16,300 -1,860 Descending Washington Center
02:53PM 37.8350 -75.8311 212° Southwest 296 341 15,800 -1,920 Descending Washington Center
02:54PM 37.7869 -75.8544 201° Southwest 303 349 14,400 -2,100 Descending Washington Center
02:54PM 37.7558 -75.8756 208° Southwest 289 333 13,500 -1,980 Descending Washington Center
02:55PM 37.7078 -75.9067 207° Southwest 298 343 12,400 -1,980 Descending Washington Center
02:56PM 37.6700 -75.9250 201° Southwest 273 314 11,200 -1,860 Descending Washington Center
02:56PM 37.6408 -75.9458 209° Southwest 284 327 10,600 -1,320 Descending Washington Center
02:57PM 37.6033 -75.9667 204° Southwest 266 306 9,900 -600 Descending Washington Center
02:57PM 37.5739 -75.9797 199° South 279 321 10,000 -660 Climbing Washington Center
02:57PM 37.5469 -75.9794 180° South 242 278 9,400 -1,920 Descending Washington Center
02:58PM 37.5072 -75.9950 197° South 260 299 8,100 -2,220 Descending Washington Center
02:58PM 37.4800 -76.0028 193° South 249 287 7,200 -1,800 Descending Washington Center
02:59PM 37.4383 -76.0156 194° South 260 299 6,400 -1,620 Descending Washington Center
02:59PM 37.4133 -76.0258 198° South 248 285 5,600 -1,380 Descending Washington Center
03:00PM 37.3736 -76.0386 194° South 255 293 5,000 -720 Descending Washington Center
03:00PM 37.3442 -76.0489 196° South 241 277 4,900  Descending Washington Center
03:01PM 37.3089 -76.0619 196° South 250 288 5,000  Climbing Washington Center
03:01PM 37.2836 -76.0694 193° South 246 283 4,900  Descending Washington Center
03:02PM 37.2442 -76.0850 197° South 250 288 5,000  Climbing Washington Center
03:02PM 37.2231 -76.0925 196° South 226 260 4,900 -120 Descending Washington Center
03:03PM 37.1833 -76.1053 194° South 237 273 4,900  Level Washington Center
03:03PM 37.1564 -76.1156 197° South 245 282 4,900  Level Washington Center
03:05PM 37.0706 -76.1436 195° South 239 275 4,900 -420 Level Washington Center
03:06PM 37.0267 -76.1928 222° Southwest 248 285 4,000 -1,020 Descending Washington Center
03:07PM 36.9658 -76.2494 217° Southwest 247 284 2,900 -840 Descending Washington Center
03:08PM 36.9175 -76.2986 219° Southwest 246 283 2,400 -540 Descending Washington Center
03:09PM 36.8775 -76.3500 226° Southwest 208 239 2,000 -300 Descending Washington Center
03:10PM 36.8336 -76.3706 201° Southwest 158 182 1,900 -240 Descending Washington Center
03:11PM 36.7922 -76.3414 151° Southeast 149 171 1,600 -240 Descending Washington Center
03:11PM 36.8047 -76.3078 65° Northeast 186 214 1,500 -360 Descending Washington Center
03:13PM 36.8511 -76.2486 46° Northeast 187 215 1,000 -420 Descending Washington Center